createdAt,value
2022-11-17T00:02:09.846Z,13.13
2022-11-17T00:05:11.813Z,12.23
2022-11-17T00:08:13.496Z,12.77
2022-11-17T00:11:15.377Z,12.57
2022-11-17T00:14:36.687Z,11.43
2022-11-17T00:17:38.373Z,12.63
2022-11-17T00:20:59.636Z,13.50
2022-11-17T00:24:01.559Z,12.30
2022-11-17T00:27:03.344Z,12.67
2022-11-17T00:30:06.291Z,12.40
2022-11-17T00:33:27.781Z,13.93
2022-11-17T00:36:29.513Z,12.20
2022-11-17T00:39:32.015Z,12.53
2022-11-17T00:42:50.088Z,12.10
2022-11-17T00:45:51.703Z,12.57
2022-11-17T00:48:53.497Z,12.57
2022-11-17T00:51:56.255Z,12.70
2022-11-17T00:54:58.000Z,12.27
2022-11-17T00:57:59.792Z,13.53
2022-11-17T01:01:01.698Z,12.23
2022-11-17T01:04:04.777Z,13.10
2022-11-17T01:07:06.521Z,12.20
2022-11-17T01:10:08.877Z,12.23
2022-11-17T01:13:10.699Z,11.30
2022-11-17T01:16:15.472Z,10.67
2022-11-17T01:19:18.283Z,10.23
2022-11-17T01:22:20.001Z,11.67
2022-11-17T01:25:22.152Z,12.03
2022-11-17T01:28:23.835Z,13.37
2022-11-17T01:31:29.041Z,11.63
2022-11-17T01:34:30.788Z,12.93
2022-11-17T01:37:32.479Z,12.10
2022-11-17T01:40:34.217Z,15.60
2022-11-17T01:43:42.315Z,16.17
2022-11-17T01:46:46.375Z,12.07
2022-11-17T01:49:55.224Z,12.93
2022-11-17T01:53:01.175Z,13.00
2022-11-17T01:56:11.181Z,13.10
2022-11-17T01:59:24.076Z,12.00
2022-11-17T02:02:41.070Z,12.53
2022-11-17T02:05:58.706Z,12.83
2022-11-17T02:09:02.592Z,12.07
2022-11-17T02:12:06.234Z,12.33
2022-11-17T02:15:08.417Z,11.23
2022-11-17T02:18:10.228Z,11.97
2022-11-17T02:21:29.225Z,12.23
2022-11-17T02:25:27.148Z,11.90
2022-11-17T02:28:39.170Z,12.67
2022-11-17T02:32:10.476Z,11.60
2022-11-17T02:35:22.003Z,11.87
2022-11-17T02:38:49.519Z,13.40
2022-11-17T02:42:14.243Z,13.40
2022-11-17T02:45:29.650Z,12.53
2022-11-17T02:48:47.247Z,15.47
2022-11-17T02:51:54.838Z,13.33
2022-11-17T02:55:10.796Z,13.87
2022-11-17T02:58:21.620Z,19.83
2022-11-17T03:01:41.791Z,15.33
2022-11-17T03:05:14.240Z,11.70
2022-11-17T03:08:50.193Z,14.70
2022-11-17T03:12:10.647Z,12.07
2022-11-17T03:15:46.138Z,13.50
2022-11-17T03:18:47.765Z,15.33
2022-11-17T03:22:09.426Z,13.70
2022-11-17T03:25:15.881Z,15.03
2022-11-17T03:28:20.971Z,17.67
2022-11-17T03:31:24.257Z,22.70
2022-11-17T03:34:29.887Z,18.37
2022-11-17T03:37:36.144Z,22.87
2022-11-17T03:40:41.311Z,22.13
2022-11-17T03:43:45.124Z,30.60
2022-11-17T03:46:51.980Z,26.20
2022-11-17T03:50:12.099Z,21.53
2022-11-17T03:53:14.134Z,27.37
2022-11-17T03:56:44.195Z,17.00
2022-11-17T03:59:56.808Z,21.23
2022-11-17T04:02:58.849Z,20.97
2022-11-17T04:06:01.256Z,20.33
2022-11-17T04:09:02.873Z,23.00
2022-11-17T04:12:23.131Z,18.70
2022-11-17T04:15:43.882Z,16.30
2022-11-17T04:18:45.492Z,18.20
2022-11-17T04:21:47.097Z,23.07
2022-11-17T04:24:48.713Z,20.23
2022-11-17T04:28:08.994Z,21.63
2022-11-17T04:31:13.756Z,20.87
2022-11-17T04:34:15.388Z,23.80
2022-11-17T04:37:19.731Z,15.93
2022-11-17T04:40:21.481Z,16.77
2022-11-17T04:43:23.193Z,14.97
2022-11-17T04:46:35.493Z,18.23
2022-11-17T04:49:37.190Z,14.97
2022-11-17T04:52:38.889Z,16.47
2022-11-17T04:55:40.517Z,20.90
2022-11-17T04:58:42.755Z,25.77
2022-11-17T05:01:47.885Z,23.07
2022-11-17T05:04:58.494Z,16.83
2022-11-17T05:08:00.550Z,15.90
2022-11-17T05:11:20.913Z,16.03
2022-11-17T05:14:24.463Z,22.50
2022-11-17T05:17:26.091Z,13.67
2022-11-17T05:20:27.717Z,14.17
2022-11-17T05:23:48.059Z,12.17
2022-11-17T05:26:50.329Z,11.20
2022-11-17T05:29:52.336Z,10.77
2022-11-17T05:32:53.944Z,11.60
2022-11-17T05:35:55.559Z,11.00
2022-11-17T05:38:57.424Z,10.33
2022-11-17T05:41:59.066Z,10.27
2022-11-17T05:45:00.714Z,9.60
2022-11-17T05:48:02.378Z,9.03
2022-11-17T05:51:04.175Z,9.93
2022-11-17T05:54:05.815Z,9.13
2022-11-17T05:57:12.615Z,9.10
2022-11-17T06:00:15.034Z,8.63
2022-11-17T06:03:20.487Z,8.67
2022-11-17T06:06:22.458Z,8.30
2022-11-17T06:09:24.693Z,7.60
2022-11-17T06:12:26.352Z,8.10
2022-11-17T06:15:28.930Z,8.40
2022-11-17T06:18:41.722Z,8.37
2022-11-17T06:22:10.486Z,9.97
2022-11-17T06:25:09.556Z,9.03
2022-11-17T06:28:14.940Z,9.07
2022-11-17T06:31:17.479Z,7.80
2022-11-17T06:34:19.246Z,7.50
2022-11-17T06:37:20.881Z,7.73
2022-11-17T06:40:22.487Z,7.67
2022-11-17T06:43:24.199Z,8.47
2022-11-17T06:46:37.737Z,9.37
2022-11-17T06:49:39.435Z,8.60
2022-11-17T06:52:41.248Z,7.97
2022-11-17T06:55:45.908Z,8.47
2022-11-17T06:58:50.506Z,8.83
2022-11-17T07:01:52.559Z,7.93
2022-11-17T07:04:54.263Z,8.23
2022-11-17T07:08:00.204Z,8.03
2022-11-17T07:11:10.235Z,8.07
2022-11-17T07:14:11.971Z,7.73
2022-11-17T07:17:13.759Z,8.43
2022-11-17T07:20:16.398Z,8.07
2022-11-17T07:23:18.161Z,8.77
2022-11-17T07:26:19.936Z,8.23
2022-11-17T07:29:21.878Z,7.93
2022-11-17T07:32:24.156Z,7.93
2022-11-17T07:35:25.963Z,7.03
2022-11-17T07:38:37.987Z,7.77
2022-11-17T07:41:39.978Z,6.83
2022-11-17T07:44:41.689Z,6.90
2022-11-17T07:47:43.417Z,6.90
2022-11-17T07:50:45.206Z,7.73
2022-11-17T07:53:47.325Z,7.73
2022-11-17T07:56:49.080Z,7.07
2022-11-17T07:59:50.833Z,7.37
2022-11-17T08:02:52.618Z,8.13
2022-11-17T08:05:54.321Z,7.03
2022-11-17T08:08:56.099Z,6.67
2022-11-17T08:11:59.084Z,6.73
2022-11-17T08:15:24.832Z,6.83
2022-11-17T08:18:27.001Z,6.17
2022-11-17T08:21:28.793Z,7.37
2022-11-17T08:24:30.504Z,6.37
2022-11-17T08:27:32.171Z,7.43
2022-11-17T08:30:35.816Z,6.80
2022-11-17T08:33:37.549Z,6.10
2022-11-17T08:36:40.142Z,6.07
2022-11-17T08:39:41.899Z,5.80
2022-11-17T08:42:43.672Z,6.30
2022-11-17T08:45:45.381Z,5.87
2022-11-17T08:48:48.975Z,4.80
2022-11-17T08:51:54.039Z,5.90
2022-11-17T08:54:55.846Z,5.40
2022-11-17T08:57:57.600Z,4.90
2022-11-17T09:01:04.948Z,4.80
2022-11-17T09:04:07.204Z,5.13
2022-11-17T09:07:08.937Z,5.23
2022-11-17T09:10:11.287Z,5.20
2022-11-17T09:13:17.483Z,5.60
2022-11-17T09:16:20.600Z,5.50
2022-11-17T09:19:22.232Z,5.07
2022-11-17T09:22:23.897Z,5.30
2022-11-17T09:25:25.515Z,5.23
2022-11-17T09:28:27.571Z,5.07
2022-11-17T09:31:30.040Z,5.33
2022-11-17T09:34:31.941Z,5.53
2022-11-17T09:37:33.732Z,5.10
2022-11-17T09:40:46.799Z,5.57
2022-11-17T09:44:17.618Z,5.10
2022-11-17T09:47:41.198Z,5.57
2022-11-17T09:50:45.388Z,4.43
2022-11-17T09:53:56.433Z,4.60
2022-11-17T09:56:59.189Z,4.23
2022-11-17T10:00:27.876Z,4.67
2022-11-17T10:03:38.757Z,4.77
2022-11-17T10:06:46.380Z,4.47
2022-11-17T10:09:51.799Z,4.87
2022-11-17T10:12:57.896Z,4.70
2022-11-17T10:16:05.414Z,5.10
2022-11-17T10:19:38.092Z,5.33
2022-11-17T10:22:40.434Z,4.63
2022-11-17T10:26:23.880Z,4.80
2022-11-17T10:29:25.639Z,4.90
2022-11-17T10:32:29.139Z,5.00
2022-11-17T10:35:34.144Z,5.23
2022-11-17T10:38:36.027Z,5.57
2022-11-17T10:41:45.176Z,5.57
2022-11-17T10:44:52.795Z,5.07
2022-11-17T10:48:09.243Z,4.93
2022-11-17T10:51:19.191Z,5.30
2022-11-17T10:54:21.890Z,5.70
2022-11-17T10:57:26.691Z,5.20
2022-11-17T11:00:34.726Z,5.07
2022-11-17T11:03:51.782Z,5.30
2022-11-17T11:07:11.594Z,5.87
2022-11-17T11:10:36.896Z,5.90
2022-11-17T11:13:53.834Z,5.80
2022-11-17T11:16:57.710Z,5.73
2022-11-17T11:19:59.631Z,5.10
2022-11-17T11:23:23.253Z,6.13
2022-11-17T11:27:07.646Z,5.87
2022-11-17T11:30:17.727Z,5.73
2022-11-17T11:33:30.442Z,5.50
2022-11-17T11:36:42.772Z,4.93
2022-11-17T11:39:55.207Z,5.07
2022-11-17T11:43:20.253Z,4.67
2022-11-17T11:46:40.661Z,4.80
2022-11-17T11:50:21.271Z,5.13
2022-11-17T11:53:32.839Z,5.40
2022-11-17T11:56:38.577Z,4.63
2022-11-17T11:59:48.433Z,4.83
2022-11-17T12:03:26.670Z,4.53
2022-11-17T12:07:01.652Z,4.83
2022-11-17T12:10:12.873Z,4.43
2022-11-17T12:13:18.166Z,5.10
2022-11-17T12:16:28.568Z,4.77
2022-11-17T12:19:50.685Z,4.87
2022-11-17T12:23:29.073Z,5.00
2022-11-17T12:26:33.300Z,5.40
2022-11-17T12:29:46.419Z,5.50
2022-11-17T12:32:48.076Z,5.30
2022-11-17T12:36:29.743Z,5.00
2022-11-17T12:40:29.977Z,5.07
2022-11-17T12:43:31.674Z,6.60
2022-11-17T12:46:33.511Z,6.27
2022-11-17T12:49:51.782Z,6.60
2022-11-17T12:53:15.372Z,5.30
2022-11-17T12:56:39.039Z,5.50
2022-11-17T13:00:11.561Z,5.27
2022-11-17T13:03:21.987Z,5.50
2022-11-17T13:06:39.234Z,5.40
2022-11-17T13:09:40.854Z,5.17
2022-11-17T13:12:47.349Z,5.60
2022-11-17T13:15:51.995Z,5.93
2022-11-17T13:18:53.755Z,8.20
2022-11-17T13:22:20.032Z,5.80
2022-11-17T13:25:22.961Z,6.50
2022-11-17T13:28:30.915Z,5.70
2022-11-17T13:31:33.526Z,5.60
2022-11-17T13:34:35.910Z,5.63
2022-11-17T13:37:37.753Z,5.37
2022-11-17T13:40:41.530Z,5.57
2022-11-17T13:43:45.952Z,5.63
2022-11-17T13:46:51.871Z,6.23
2022-11-17T13:49:53.526Z,6.13
2022-11-17T13:52:58.792Z,6.23
2022-11-17T13:56:00.668Z,6.20
2022-11-17T13:59:26.425Z,5.90
2022-11-17T14:02:29.676Z,6.20
2022-11-17T14:05:33.025Z,5.73
2022-11-17T14:08:36.289Z,5.97
2022-11-17T14:11:41.719Z,5.90
2022-11-17T14:14:44.964Z,6.53
2022-11-17T14:17:58.341Z,5.87
2022-11-17T14:21:16.632Z,5.90
2022-11-17T14:24:18.441Z,7.03
2022-11-17T14:27:29.663Z,6.87
2022-11-17T14:30:31.386Z,5.13
2022-11-17T14:33:33.034Z,5.00
2022-11-17T14:36:36.634Z,5.73
2022-11-17T14:39:38.359Z,4.87
2022-11-17T14:42:45.421Z,7.37
2022-11-17T14:45:47.863Z,5.80
2022-11-17T14:48:50.130Z,5.37
2022-11-17T14:51:53.111Z,5.93
2022-11-17T14:55:07.940Z,5.50
2022-11-17T14:58:10.119Z,5.47
2022-11-17T15:01:18.612Z,6.10
2022-11-17T15:04:48.736Z,5.70
2022-11-17T15:07:42.477Z,5.57
2022-11-17T15:10:45.413Z,5.47
2022-11-17T15:13:47.088Z,5.57
2022-11-17T15:16:48.759Z,6.40
2022-11-17T15:19:50.410Z,7.53
2022-11-17T15:22:52.065Z,6.83
2022-11-17T15:25:53.770Z,5.60
2022-11-17T15:28:57.817Z,5.70
2022-11-17T15:32:02.520Z,6.10
2022-11-17T15:35:04.283Z,6.50
2022-11-17T15:38:06.006Z,5.80
2022-11-17T15:41:09.830Z,6.37
2022-11-17T15:44:11.501Z,6.20
2022-11-17T15:47:13.104Z,4.93
2022-11-17T15:50:15.050Z,4.40
2022-11-17T15:53:16.727Z,4.03
2022-11-17T15:56:36.224Z,4.30
2022-11-17T15:59:37.820Z,5.30
2022-11-17T16:02:41.213Z,4.27
2022-11-17T16:05:42.932Z,4.33
2022-11-17T16:08:44.667Z,4.47
2022-11-17T16:11:46.377Z,4.47
2022-11-17T16:14:48.127Z,5.20
2022-11-17T16:17:49.839Z,5.63
2022-11-17T16:20:51.909Z,5.30
2022-11-17T16:23:56.411Z,7.43
2022-11-17T16:26:58.072Z,4.90
2022-11-17T16:29:59.763Z,5.77
2022-11-17T16:33:02.256Z,6.30
2022-11-17T16:36:05.466Z,4.13
2022-11-17T16:39:09.880Z,3.10
2022-11-17T16:42:11.549Z,2.70
2022-11-17T16:45:13.333Z,4.40
2022-11-17T16:48:15.129Z,5.80
2022-11-17T16:51:17.889Z,5.40
2022-11-17T16:54:20.535Z,5.20
2022-11-17T16:57:22.409Z,4.97
2022-11-17T17:00:24.241Z,4.30
2022-11-17T17:03:25.912Z,4.23
2022-11-17T17:06:28.244Z,5.13
2022-11-17T17:09:30.347Z,4.60
2022-11-17T17:12:32.290Z,4.00
2022-11-17T17:15:36.665Z,4.00
2022-11-17T17:18:38.884Z,4.37
2022-11-17T17:21:49.082Z,4.40
2022-11-17T17:24:53.999Z,4.63
2022-11-17T17:27:55.689Z,4.80
2022-11-17T17:30:57.761Z,5.37
2022-11-17T17:34:02.773Z,9.00
2022-11-17T17:37:04.490Z,7.80
2022-11-17T17:40:06.997Z,7.23
2022-11-17T17:43:08.676Z,6.90
2022-11-17T17:46:16.553Z,7.00
2022-11-17T17:49:19.349Z,7.47
2022-11-17T17:52:21.295Z,7.40
2022-11-17T17:55:23.099Z,7.20
2022-11-17T17:58:25.240Z,8.40
2022-11-17T18:01:40.635Z,8.20
2022-11-17T18:04:42.351Z,7.50
2022-11-17T18:07:44.098Z,7.10
2022-11-17T18:10:45.889Z,7.50
2022-11-17T18:13:49.722Z,8.07
2022-11-17T18:16:51.890Z,9.13
2022-11-17T18:19:53.612Z,9.20
2022-11-17T18:22:56.597Z,9.47
2022-11-17T18:25:58.424Z,9.40
2022-11-17T18:29:06.036Z,9.10
2022-11-17T18:32:07.790Z,8.57
2022-11-17T18:35:09.581Z,9.17
2022-11-17T18:38:11.594Z,8.50
2022-11-17T18:41:15.177Z,7.97
2022-11-17T18:44:19.329Z,8.47
2022-11-17T18:47:21.061Z,8.63
2022-11-17T18:50:22.719Z,8.20
2022-11-17T18:53:24.446Z,8.43
2022-11-17T18:56:28.404Z,9.67
2022-11-17T18:59:30.062Z,9.17
2022-11-17T19:02:31.876Z,9.43
2022-11-17T19:05:36.605Z,9.43
2022-11-17T19:08:38.606Z,9.90
2022-11-17T19:11:40.330Z,10.07
2022-11-17T19:14:42.170Z,8.67
2022-11-17T19:17:43.851Z,9.20
2022-11-17T19:20:46.081Z,10.37
2022-11-17T19:23:51.856Z,9.30
2022-11-17T19:26:53.954Z,10.43
2022-11-17T19:29:55.705Z,11.13
2022-11-17T19:32:57.559Z,11.03
2022-11-17T19:36:31.343Z,9.80
2022-11-17T19:39:33.012Z,10.27
2022-11-17T19:42:34.726Z,9.83
2022-11-17T19:45:36.405Z,10.67
2022-11-17T19:48:38.831Z,11.20
2022-11-17T19:51:41.874Z,11.33
2022-11-17T19:54:43.547Z,10.67
2022-11-17T19:57:48.031Z,10.97
2022-11-17T20:00:49.821Z,16.13
2022-11-17T20:04:20.805Z,20.30
2022-11-17T20:07:22.498Z,9.77
2022-11-17T20:10:24.208Z,10.50
2022-11-17T20:13:25.888Z,10.40
2022-11-17T20:16:27.788Z,10.67
2022-11-17T20:19:29.447Z,11.20
2022-11-17T20:22:31.681Z,10.33
2022-11-17T20:25:37.900Z,10.37
2022-11-17T20:28:40.392Z,10.53
2022-11-17T20:31:42.073Z,9.87
2022-11-17T20:34:43.720Z,14.80
2022-11-17T20:37:48.567Z,10.17
2022-11-17T20:40:55.554Z,9.83
2022-11-17T20:43:59.221Z,9.93
2022-11-17T20:47:00.955Z,13.43
2022-11-17T20:50:02.666Z,10.10
2022-11-17T20:53:04.332Z,11.83
2022-11-17T20:56:17.656Z,13.07
2022-11-17T20:59:20.440Z,11.00
2022-11-17T21:02:22.336Z,11.10
2022-11-17T21:05:24.008Z,10.47
2022-11-17T21:08:27.287Z,10.37
2022-11-17T21:11:47.744Z,10.50
2022-11-17T21:15:05.158Z,10.77
2022-11-17T21:18:24.865Z,10.43
2022-11-17T21:21:26.694Z,10.40
2022-11-17T21:24:28.370Z,10.77
2022-11-17T21:27:30.059Z,10.60
2022-11-17T21:30:32.734Z,11.60
2022-11-17T21:33:35.612Z,11.13
2022-11-17T21:36:37.291Z,11.03
2022-11-17T21:39:39.026Z,10.47
2022-11-17T21:42:40.705Z,11.47
2022-11-17T21:45:42.401Z,10.53
2022-11-17T21:48:45.168Z,10.50
2022-11-17T21:51:55.091Z,10.43
2022-11-17T21:54:56.817Z,10.00
2022-11-17T21:57:58.443Z,8.97
2022-11-17T22:01:14.076Z,11.20
2022-11-17T22:04:15.943Z,11.13
2022-11-17T22:07:20.192Z,10.97
2022-11-17T22:10:21.917Z,10.50
2022-11-17T22:13:23.690Z,11.10
2022-11-17T22:16:25.414Z,11.47
2022-11-17T22:19:29.348Z,10.83
2022-11-17T22:22:31.761Z,10.60
2022-11-17T22:25:48.797Z,10.70
2022-11-17T22:28:55.018Z,12.27
2022-11-17T22:31:56.704Z,11.70
2022-11-17T22:35:01.346Z,11.83
2022-11-17T22:38:02.981Z,12.60
2022-11-17T22:41:13.123Z,11.77
2022-11-17T22:44:18.146Z,11.40
2022-11-17T22:47:19.833Z,12.40
2022-11-17T22:50:21.541Z,10.97
2022-11-17T22:53:23.177Z,11.40
2022-11-17T22:56:24.846Z,11.90
2022-11-17T22:59:27.418Z,11.80
2022-11-17T23:02:29.130Z,11.60
2022-11-17T23:05:31.837Z,12.63
2022-11-17T23:08:33.502Z,12.73
2022-11-17T23:11:38.642Z,13.27
2022-11-17T23:14:40.387Z,12.27
2022-11-17T23:17:42.766Z,12.20
2022-11-17T23:20:44.430Z,13.23
2022-11-17T23:23:46.106Z,12.57
2022-11-17T23:26:47.829Z,12.27
2022-11-17T23:29:49.830Z,12.87
2022-11-17T23:32:55.391Z,13.93
2022-11-17T23:35:57.823Z,13.23
2022-11-17T23:38:59.489Z,13.77
2022-11-17T23:42:01.221Z,13.20
2022-11-17T23:45:02.918Z,13.30
2022-11-17T23:48:04.678Z,12.27
2022-11-17T23:51:07.835Z,12.73
2022-11-17T23:54:12.246Z,11.40
2022-11-17T23:57:13.847Z,10.97
